Pagrindinis puslapis
METAR-TAF:

METAR-TAF

Oro uostai :

Woensdrecht, Nyderlandai

platuma: 51-27N, ilguma: 004-20E, Aukštis: 20 m

Dabartinis oras

Ataskaita buvo paskelbta 32 minutes, ne 06:25 UTC
Vėjas 3 kt iš Rytų/Pietryčių, svyruoja nuo Rytų ir Pietryčių
Temperatūra 23°C
Drėgmė 65%
Slėgis 1010 hPa
Matomumas 10 km arba daugiau
Mažai debesys ne aukštis 2600 ft, Liūtiniai kamuoliniai debesys.

METAR: EHWO 200625Z AUTO 11003KT 080V140 9999 FEW026CB 23/16 Q1010 BLU

Laikas: 08:57 (06:57 UTC)

Prognozė

Ataskaita buvo paskelbta 22 valandos ir 19 minutes, ne 08:38 UTC
Prognozė galioja nuo 19 metu 09 UTC su 19 metu 21 UTC
Vėjas 3 kt iš Pietryčių
Matomumas 10 km arba daugiau
nėra debesų žemiau 1500 m ir nėra kamuolinių lietaus debesų
Laikinai
nuo 19 metu 12 UTC su 19 metu 17 UTC
Vėjas 6 kt iš Pietų/Pietryčių

TAF: EHWO 190838Z 1909/1921 13003KT CAVOK TEMPO 1912/1917 15006KT

Orai ataskaitas ir orų prognozės (METAR, TAF).

turimą stotys yra geltonos ir raudonos taškus žemėlapyje.

Perkelti pele per norėdami pamatyti stoties vardą.

Tada spustelėkite, norėdami matyti oro stebėjimo ir prognozės.

Norėdami pakeisti žemėlapį: spustelėkite ant žalios mygtukų su juodo kryžiaus žemyn,; žalią mygtuką su brūkšneliu, jei norite nutolinti; arba žalių rodyklių gretimoms žemėlapius.


METAR-TAF: